Historyczne dane pomiarowe

Dodano dane terminowe – wersja testowa.

Dane z okresu 1951-2019

Wersja bazy: 1.34 [2019-03-16, lista zmian], aktualizacja planowana na 2019-04-15

Dane meteo z obszaru Polski uzyskane na podstawie danych udostępnionych przez Instytut Meteorologii i Gospodarki Wodnej – Państwowy Instytut Badawczy.

 

Wybierz Datę:    

       

TemperaturaWilgotnośćWiatrCiśnienieOpadyŚniegCzas trwania zjawisk
 Stacja t tx tn tng RH VA  wxwx mslp ppp RRR   cm mm wxwxwxwxwxwxwx
1999-08-14 13.5 20.6 8.2- 74.5- 4.3 2.0---- 0.0------------
1999-08-13 14.4 18.5 10.0- 72.3- 6.0 1.0---- 0.0------------
1999-08-12 14.9 18.6 12.5- 82.3- 7.7 1.7---- 0.0------------
1999-08-11 18.9 24.0 15.8- 81.3- 6.7 1.3---- 7.5------------
1999-08-10 20.5 27.7 16.3- 82.8- 7.3 1.0---- 5.9------------
1999-08-09 21.1 28.6 15.4- 81.3- 3.3 2.0---- 7.3------------
1999-08-08 21.3 27.2 16.2- 75.8- 4.3 1.0---- 0.0------------
1999-08-07 20.3 27.6 13.3- 77.5- 6.7 1.3---- 0.7------------
1999-08-06 21.0 26.3 16.6- 71.5- 5.0 2.0---- 0.0------------
1999-08-05 17.7 26.5 9.7- 68.5- 5.7 1.0---- 0.0------------
1999-08-04 16.4 24.3 9.0- 66.5- 3.0 1.7---- 0.0------------
1999-08-03 15.9 22.0 9.6- 72.3- 6.7 0.3---- 0.0------------
1999-08-02 16.3 21.6 10.8- 69.5- 6.0 0.7---- 0.0------------
1999-08-01 17.1 23.5 11.4- 67.5- 5.0 1.3---- 0.0------------
1999-07-31 17.0 23.9 9.9- 68.5- 4.0 1.3---- 0.0------------
1999-07-30 16.1 23.3 10.0- 73.8- 3.3 2.0---- 0.2------------
1999-07-29 18.3 22.5 13.4- 64.3- 3.3 4.0---- 0.0------------
1999-07-28 18.8 23.8 14.3- 62.3- 2.7 2.0---- 0.0------------
1999-07-27 19.1 23.0 16.0- 89.0- 7.7 1.3---- 0.6------------
1999-07-26 18.6 25.3 10.9- 85.0- 6.7 1.0---- 0.0------------
1999-07-25 17.3 23.4 11.0- 79.3- 6.3 1.0---- 0.0------------
1999-07-24 16.1 20.8 10.7- 81.3- 8.0 0.7---- 0.0------------
1999-07-23 14.7 18.4 12.8- 91.0- 7.7 1.7---- 20.8------------
1999-07-22 18.9 22.6 15.2- 70.3- 7.3 2.0---- 11.4------------
1999-07-21 21.3 28.1 15.7- 65.8- 4.3 1.7---- 0.6------------
1999-07-20 20.2 28.6 10.5- 60.8- 0.7 1.0---- 0.0------------
1999-07-19 18.6 26.5 10.4- 64.8- 4.7 1.3---- 0.0------------
1999-07-18 16.6 24.5 9.5- 70.3- 1.3 1.3---- 0.0------------
1999-07-17 16.4 22.7 10.0- 69.5- 2.3 2.0---- 0.0------------
1999-07-16 16.9 21.5 12.7- 69.8- 5.0 0.7---- 0.0------------
1999-07-15 16.4 20.2 14.1- 80.8- 7.7 2.0---- 0.1------------
1999-07-14 20.9 26.6 17.8- 76.0- 7.0 1.7---- 5.6------------
1999-07-13 20.4 25.5 15.3- 81.3- 7.0 0.3---- 3.7------------
1999-07-12 19.4 26.3 14.9- 82.0- 5.0 2.0---- 63.0------------
1999-07-11 19.4 21.3 17.8- 84.5- 6.7 1.3---- 8.1------------
1999-07-10 19.7 21.9 17.4- 82.8- 8.0 3.0---- 0.1------------
1999-07-09 18.0 20.1 15.4- 92.8- 8.0 1.3---- 8.2------------
1999-07-08 17.8 21.6 15.9- 90.3- 7.3 1.0---- 7.6------------
1999-07-07 22.3 28.7 19.3- 77.5- 8.0 2.3---- 48.7------------
1999-07-06 26.4 31.2 19.9- 49.8- 2.0 2.3---- 0.0------------
1999-07-05 24.6 31.3 16.0- 64.8- 1.0 2.3---- 0.0------------
1999-07-04 20.8 29.6 12.5- 60.3- 0.0 1.3---- 0.0------------
1999-07-03 19.1 24.7 13.9- 84.8- 3.0 1.3---- 0.0------------
1999-07-02 19.0 24.1 13.0- 85.8- 4.7 1.3---- 0.0------------
1999-07-01 18.6 24.3 12.9- 88.0- 5.7 0.3---- 0.0------------
1999-06-30 18.7 24.8 11.9- 84.8- 6.7 1.3---- 0.0------------
1999-06-29 19.6 23.4 14.5- 78.5- 3.7 0.7---- 0.0------------
1999-06-28 16.5 25.9 5.6- 81.8- 6.3 1.3---- 18.9------------
1999-06-27 18.7 27.1 10.7- 75.5- 3.0 1.3---- 0.0------------
1999-06-26 16.4 24.9 7.0- 64.8- 2.0 1.7---- 0.0------------
1999-06-25 13.1 19.4 5.4- 65.8- 2.3 0.7---- 0.0------------
1999-06-24 12.0 15.3 8.0- 75.5- 5.3 0.3---- 0.0------------
1999-06-23 10.0 11.9 7.4- 86.0- 8.0 2.3---- 2.9------------
1999-06-22 10.4 14.7 8.5- 91.8- 8.0 4.3---- 47.0------------
1999-06-21 17.6 22.5 14.4- 76.3- 7.3 1.7---- 43.7------------
1999-06-20 17.2 20.6 14.4- 89.5- 7.7 1.7---- 0.3------------
1999-06-19 14.9 16.8 13.2- 87.3- 8.0 0.7---- 0.2------------
1999-06-18 16.2 19.0 14.8- 92.8- 8.0 1.3---- 17.7------------
1999-06-17 18.1 21.3 15.4- 85.0- 7.7 0.7---- 44.4------------
1999-06-16 16.7 19.0 14.5- 92.0- 8.0 0.3---- 0.3------------
422.0 ms

 

Źródłem pochodzenia danych jest Instytut Meteorologii i Gospodarki Wodnej – Państwowy Instytut Badawczy. Dane Instytutu Meteorologii i Gospodarki Wodnej – Państwowego Instytutu Badawczego zostały przetworzone.

Dane źródłowe można odnaleźć na stronie https://dane.imgw.pl